Condiciones actuales en los principales Aeropuertos de España-Datos Metar

 

LEAL - Alicante
Actualización: 30/03/2017 20:30
Despejado
Despejado
 Viento del NE
Viento: NE 6 km/h
Temperatura: 16°C
Rocío: 9°C
Humedad: 63%
Resumen: Despejado
Visibilidad: greater than 10 km
2017/03/30 18:30 LEAL 301830Z 04003KT 360V070 CAVOK 16/09 Q102
LEAB - Albacete
Actualización: 30/03/2017 20:00
Despejado
Despejado
 Viento del S
Viento: S 17 km/h
Temperatura: 16°C
Rocío: 3°C
Humedad: 42%
Barómetro: 1023 hPa
Resumen: Despejado
Visibilidad: greater than 10 km
2017/03/30 18:00 LEAB 301800Z 17009KT 130V200 CAVOK 16/03 Q1023 NOSIG
LEAM - Almería
Actualización: 30/03/2017 20:30
Despejado
Despejado
 Viento del E
Viento: E 9 km/h
Temperatura: 18°C
Rocío: 4°C
Humedad: 40%
Barómetro: 1023 hPa
Resumen: Despejado
Visibilidad: greater than 10 km
2017/03/30 18:30 LEAM 301830Z 08005KT 050V110 CAVOK 18/04 Q1023
 
LEAS - Asturias/Aviles
Actualización: 30/03/2017 20:30
Few Clouds
Few Clouds
 Viento del OSO
Viento: OSO 7 km/h
Temperatura: 19°C
Rocío: 14°C
Humedad: 73%
Barómetro: 1014 hPa
Nubosidad: Few Clouds
Visibilidad: 10 km
Cloud details: Few Clouds 1829 m
2017/03/30 18:30 LEAS 301830Z 24004KT 9999 FEW060 19/14 Q1014 TEMPO SHRA SCT030TCU
LEBZ - Badajoz/Talavera la Real
Actualización: 30/03/2017 20:00
Despejado
Despejado
 Viento del OSO
Viento: OSO 15 km/h
Temperatura: 22°C
Rocío: 10°C
Humedad: 47%
Barómetro: 1021 hPa
Resumen: Despejado
Visibilidad: greater than 10 km
2017/03/30 18:00 LEBZ 301800Z 25008KT 220V280 CAVOK 22/10 Q1021
LEBL - Barcelona
Actualización: 30/03/2017 20:30
Despejado
Despejado
 Viento del SO
Viento: SO 15 km/h
Temperatura: 15°C
Rocío: 13°C
Humedad: 88%
Barómetro: 1024 hPa
Resumen: Despejado
Visibilidad: greater than 10 km
2017/03/30 18:30 LEBL 301830Z 22008KT CAVOK 15/13 Q1024 NOSIG
 
LEBB - Bilbao
Actualización: 30/03/2017 20:30
Despejado
Despejado
 Viento del S
Viento: S 17 km/h
Temperatura: 23°C
Rocío: 10°C
Humedad: 44%
Barómetro: 1016 hPa
Resumen: Despejado
Visibilidad: greater than 10 km
2017/03/30 18:30 LEBB 301830Z 17009KT 120V200 CAVOK 23/10 Q1016 NOSIG
LEBG - Burgos/Villafría
Actualización: 30/03/2017 20:00
Despejado
Despejado
 Viento del SSO
Viento: SSO 17 km/h
Temperatura: 17°C
Rocío: 2°C
Humedad: 37%
Barómetro: 1020 hPa
Resumen: Despejado
Visibilidad: greater than 10 km
2017/03/30 18:00 LEBG 301800Z 20009KT CAVOK 17/02 Q1020
LEBA - Córdoba
Actualización: 30/03/2017 20:00
Despejado
Despejado
 Viento del S
Viento: S 7 km/h
Temperatura: 22°C
Rocío: 8°C
Humedad: 41%
Barómetro: 1021 hPa
Resumen: Despejado
Visibilidad: greater than 10 km
2017/03/30 18:00 LEBA 301800Z AUTO 18004KT 150V210 CAVOK 22/08 Q1021
 
LEGE - Gerona
Actualización: 30/03/2017 20:30
Despejado
Despejado
 Viento del S
Viento: S 15 km/h
Temperatura: 15°C
Rocío: 4°C
Humedad: 48%
Barómetro: 1023 hPa
Resumen: Despejado
Visibilidad: greater than 10 km
2017/03/30 18:30 LEGE 301830Z 18008KT CAVOK 15/04 Q1023
LEGR - Granada
Actualización: 30/03/2017 20:30
Despejado
Despejado
 Viento del varies
Viento: varies 4 km/h
Temperatura: 19°C
Rocío: 5°C
Humedad: 40%
Barómetro: 1023 hPa
Resumen: Despejado
Visibilidad: greater than 10 km
2017/03/30 18:30 LEGR 301830Z VRB02KT CAVOK 19/05 Q1023
GCHI - Hierro
Actualización: 30/03/2017 20:30
Despejado
Despejado
 Viento del N
Viento: N 33 km/h
Temperatura: 20°C
Rocío: 14°C
Humedad: 69%
Barómetro: 1020 hPa
Nubosidad: Despejado
Visibilidad: 10 km
2017/03/30 18:30 GCHI 301830Z AUTO 35018KT 9999 NCD 20/14 Q1020
 
LEIB - Ibiza
Actualización: 30/03/2017 20:30
Despejado
Despejado
 Viento del ENE
Viento: ENE 9 km/h
Temperatura: 15°C
Rocío: 12°C
Humedad: 82%
Barómetro: 1024 hPa
Resumen: Despejado
Visibilidad: greater than 10 km
2017/03/30 18:30 LEIB 301830Z 06005KT CAVOK 15/12 Q1024 NOSIG
LEJR - Jerez de la Frontera
Actualización: 30/03/2017 20:30
Despejado
Despejado
 Viento del SSO
Viento: SSO 7 km/h
Temperatura: 19°C
Rocío: 6°C
Humedad: 43%
Barómetro: 1021 hPa
Resumen: Despejado
Visibilidad: greater than 10 km
2017/03/30 18:30 LEJR 301830Z 20004KT 150V240 CAVOK 19/06 Q1021
LECO - A Coruña
Actualización: 30/03/2017 20:30
Partly Cloudy
Partly Cloudy
 Viento del SSO
Viento: SSO 20 km/h
Temperatura: 13°C
Rocío: 11°C
Humedad: 88%
Barómetro: 1016 hPa
Nubosidad: Partly Cloudy
Visibilidad: 10 km
Cloud details: Partly Cloudy 1463 m
2017/03/30 18:30 LECO 301830Z 20011KT 160V230 9999 SCT048TCU 13/11 Q1016 TEMPO 4000 SHRA
 
GCLA - La Palma
Actualización: 30/03/2017 20:30
Despejado
Despejado
 Viento del NNO
Viento: NNO 19 km/h
Temperatura: 21°C
Rocío: 12°C
Humedad: 57%
Barómetro: 1022 hPa
Resumen: Despejado
Visibilidad: greater than 10 km
2017/03/30 18:30 GCLA 301830Z 34010KT 320V020 CAVOK 21/12 Q1022
GCRR - Lanzarote
Actualización: 30/03/2017 20:30
Despejado
Despejado
 Viento del N
Viento: N 33 km/h
Temperatura: 22°C
Rocío: 15°C
Humedad: 65%
Barómetro: 1018 hPa
Resumen: Despejado
Visibilidad: greater than 10 km
2017/03/30 18:30 GCRR 301830Z 36018KT CAVOK 22/15 Q1018
GCLP - Las Palmas
Actualización: 30/03/2017 20:30
Despejado
Despejado
 Viento del N
Viento: N 37 km/h
Temperatura: 23°C
Rocío: 8°C
Humedad: 38%
Barómetro: 1019 hPa
Resumen: Despejado
Visibilidad: greater than 10 km
2017/03/30 18:30 GCLP 301830Z 36020KT CAVOK 23/08 Q1019 NOSIG
 
LELN - León
Actualización: 30/03/2017 20:00
Partly Cloudy
Partly Cloudy
 Viento del SSO
Viento: SSO 20 km/h
Temperatura: 16°C
Rocío: 4°C
Humedad: 45%
Barómetro: 1018 hPa
Nubosidad: Partly Cloudy
Visibilidad: 10 km
Cloud details: Partly Cloudy 1676 m
2017/03/30 18:00 LELN 301800Z 20011KT 180V240 9999 SCT055 16/04 Q1018
LELO - Logroño
Actualización: 30/03/2017 20:00
Despejado
Despejado
 Viento del E
Viento: E 28 km/h
Temperatura: 19°C
Rocío: 9°C
Humedad: 52%
Barómetro: 1018 hPa
Resumen: Despejado
Visibilidad: greater than 10 km
2017/03/30 18:00 LELO 301800Z 10015KT CAVOK 19/09 Q1018
LECV - Madrid/Colmenar
Actualización: 30/03/2017 20:00
Few Clouds
Few Clouds
 Viento del OSO
Viento: OSO 7 km/h
Temperatura: 16°C
Rocío: 5°C
Humedad: 48%
Barómetro: 1022 hPa
Nubosidad: Few Clouds
Visibilidad: 10 km
Cloud details: Few Clouds 1524 m
2017/03/30 18:00 LECV 301800Z 24004KT 9999 FEW050 16/05 Q1022
 
LEMD - Madrid/Barajas
Actualización: 30/03/2017 20:30
Despejado
Despejado
 Viento del SO
Viento: SO 13 km/h
Temperatura: 20°C
Rocío: 6°C
Humedad: 40%
Barómetro: 1021 hPa
Resumen: Despejado
Visibilidad: greater than 10 km
2017/03/30 18:30 LEMD 301830Z 23007KT 150V260 CAVOK 20/06 Q1021 NOSIG
LEVS - Madrid/Cuatro Vientos
Actualización: 30/03/2017 20:30
Despejado
Despejado
 Viento del SSO
Viento: SSO 7 km/h
Temperatura: 18°C
Rocío: 5°C
Humedad: 43%
Barómetro: 1021 hPa
Resumen: Despejado
Visibilidad: greater than 10 km
2017/03/30 18:30 LEVS 301830Z 21004KT CAVOK 18/05 Q1021
LEGT - Madrid/Getafe
Actualización: 30/03/2017 20:00
Despejado
Despejado
 Viento del SO
Viento: SO 9 km/h
Temperatura: 18°C
Rocío: 7°C
Humedad: 49%
Barómetro: 1021 hPa
Resumen: Despejado
Visibilidad: greater than 10 km
2017/03/30 18:00 LEGT 301800Z 23005KT CAVOK 18/07 Q1021
 
LETO - Madrid/Torrejón
Actualización: 30/03/2017 20:00
Despejado
Despejado
 Viento del S
Viento: S 13 km/h
Temperatura: 20°C
Rocío: 4°C
Humedad: 35%
Barómetro: 1021 hPa
Resumen: Despejado
Visibilidad: greater than 10 km
2017/03/30 18:00 LETO 301800Z 19007KT CAVOK 20/04 Q1021 NOSIG
LEMG - Málaga
Actualización: 30/03/2017 20:30
Despejado
Despejado
 Viento del ESE
Viento: ESE 4 km/h
Temperatura: 16°C
Rocío: 7°C
Humedad: 55%
Barómetro: 1023 hPa
Resumen: Despejado
Visibilidad: greater than 10 km
2017/03/30 18:30 LEMG 301830Z 12002KT CAVOK 16/07 Q1023 NOSIG
GEML - Melilla
Actualización: 30/03/2017 20:00
Partly Cloudy
Partly Cloudy
 Viento del varies
Viento: varies 4 km/h
Temperatura: 17°C
Rocío: 14°C
Humedad: 83%
Barómetro: 1023 hPa
Nubosidad: Partly Cloudy
Visibilidad: 10 km
Cloud details: Partly Cloudy 274 m
2017/03/30 18:00 GEML 301800Z VRB02KT 9999 SCT009 17/14 Q1023
 
LEMH - Mahón
Actualización: 30/03/2017 20:30
Despejado
Despejado
 Viento del varies
Viento: varies 2 km/h
Temperatura: 14°C
Rocío: 12°C
Humedad: 88%
Barómetro: 1025 hPa
Resumen: Despejado
Visibilidad: greater than 10 km
2017/03/30 18:30 LEMH 301830Z VRB01KT CAVOK 14/12 Q1025
LEMO - Morón de La Frontera
Actualización: 30/03/2017 20:00
Despejado
Despejado
 Viento del O
Viento: O 9 km/h
Temperatura: 21°C
Rocío: 10°C
Humedad: 50%
Barómetro: 1021 hPa
Resumen: Despejado
Visibilidad: greater than 10 km
2017/03/30 18:00 LEMO 301800Z 28005KT CAVOK 21/10 Q1021 NOSIG
LERI - Murcia/Alcantarilla
Actualización: 30/03/2017 20:00
Despejado
Despejado
 Viento del SE
Viento: SE 11 km/h
Temperatura: 17°C
Rocío: 6°C
Humedad: 49%
Barómetro: 1024 hPa
Resumen: Despejado
Visibilidad: greater than 10 km
2017/03/30 18:00 LERI 301800Z 13006KT CAVOK 17/06 Q1024 NOSIG
 
LELC - Murcia/San Javier
Actualización: 30/03/2017 20:00
Despejado
Despejado
 Viento del ENE
Viento: ENE 13 km/h
Temperatura: 16°C
Rocío: 12°C
Humedad: 77%
Barómetro: 1024 hPa
Resumen: Despejado
Visibilidad: greater than 10 km
2017/03/30 18:00 LELC 301800Z 06007KT 360V080 CAVOK 16/12 Q1024 NOSIG
LEPA - Palma de Mallorca
Actualización: 30/03/2017 20:30
Despejado
Despejado
 Viento del varies
Viento: varies 2 km/h
Temperatura: 16°C
Rocío: 10°C
Humedad: 68%
Barómetro: 1025 hPa
Resumen: Despejado
Visibilidad: greater than 10 km
2017/03/30 18:30 LEPA 301830Z VRB01KT CAVOK 16/10 Q1025 NOSIG
LEPP - Pamplona
Actualización: 30/03/2017 20:30
Despejado
Despejado
 Viento del ENE
Viento: ENE 6 km/h
Temperatura: 18°C
Rocío: 4°C
Humedad: 40%
Barómetro: 1020 hPa
Resumen: Despejado
Visibilidad: greater than 10 km
2017/03/30 18:30 LEPP 301830Z 07003KT 010V110 CAVOK 18/04 Q1020
 
LERS - Reus
Actualización: 30/03/2017 20:30
Despejado
Despejado
 Viento del varies
Viento: varies 2 km/h
Temperatura: 14°C
Rocío: 11°C
Humedad: 82%
Barómetro: 1025 hPa
Resumen: Despejado
Visibilidad: greater than 10 km
2017/03/30 18:30 LERS 301830Z VRB01KT CAVOK 14/11 Q1025
LERT - Rota
Actualización: 30/03/2017 20:00
Despejado
Despejado
 Viento del SE
Viento: SE 15 km/h
Temperatura: 20°C
Rocío: 9°C
Humedad: 49%
Barómetro: 1021 hPa
Resumen: Despejado
Visibilidad: greater than 10 km
2017/03/30 18:00 LERT 301800Z 14008KT 110V180 CAVOK 20/09 Q1021 NOSIG
LELL - Sabadell
Actualización: 30/03/2017 20:30
Despejado
Despejado
 Viento del OSO
Viento: OSO 6 km/h
Temperatura: 16°C
Rocío: 4°C
Humedad: 45%
Barómetro: 1024 hPa
Nubosidad: Despejado
Visibilidad: 10 km
2017/03/30 18:30 LELL 301830Z AUTO 24003KT 210V270 9999 NCD 16/04 Q1024
 
LESA - Salamanca
Actualización: 30/03/2017 20:30
Few Clouds
Few Clouds
 Viento del OSO
Viento: OSO 24 km/h
Temperatura: 15°C
Rocío: 6°C
Humedad: 55%
Barómetro: 1021 hPa
Nubosidad: Few Clouds
Visibilidad: 10 km
Cloud details: Few Clouds 1219 m
2017/03/30 18:30 LESA 301830Z 25013KT 9999 FEW040 15/06 Q1021
LESO - San Sebastián
Actualización: 30/03/2017 20:30
Despejado
Despejado
 Viento del SSO
Viento: SSO 11 km/h
Temperatura: 24°C
Rocío: 5°C
Humedad: 29%
Barómetro: 1016 hPa
Resumen: Despejado
Visibilidad: greater than 10 km
2017/03/30 18:30 LESO 301830Z 21006KT 170V250 CAVOK 24/05 Q1016
LEXJ - Santander
Actualización: 30/03/2017 20:30
Despejado
Despejado
 Viento del SO
Viento: SO 13 km/h
Temperatura: 23°C
Rocío: 7°C
Humedad: 36%
Barómetro: 1014 hPa
Resumen: Despejado
Visibilidad: greater than 10 km
2017/03/30 18:30 LEXJ 301830Z 22007KT 170V250 CAVOK 23/07 Q1014
 
LEPA - Palma de Mallorca
Actualización: 30/03/2017 20:30
Despejado
Despejado
 Viento del varies
Viento: varies 2 km/h
Temperatura: 16°C
Rocío: 10°C
Humedad: 68%
Barómetro: 1025 hPa
Resumen: Despejado
Visibilidad: greater than 10 km
2017/03/30 18:30 LEPA 301830Z VRB01KT CAVOK 16/10 Q1025 NOSIG
LEPP - Pamplona
Actualización: 30/03/2017 20:30
Despejado
Despejado
 Viento del ENE
Viento: ENE 6 km/h
Temperatura: 18°C
Rocío: 4°C
Humedad: 40%
Barómetro: 1020 hPa
Resumen: Despejado
Visibilidad: greater than 10 km
2017/03/30 18:30 LEPP 301830Z 07003KT 010V110 CAVOK 18/04 Q1020
LEST - Santiago de Compostela
Actualización: 30/03/2017 20:30
Lluvia débil, Showers, Parcialmente nublado
Lluvia débil, Showers, Parcialmente nublado
 Viento del S
Viento: S 22 km/h
Temperatura: 11°C
Rocío: 10°C
Humedad: 94%
Barómetro: 1017 hPa
Resumen: Lluvia débil, Showers
Nubosidad: Partly Cloudy
Visibilidad: 10 km
Cloud details: Mostly Cloudy 457 m
Partly Cloudy 610 m
2017/03/30 18:30 LEST 301830Z 19012KT 160V220 9999 -SHRA BKN015 SCT020TCU 11/10 Q1017 TEMPO 3000 SHRA
 
LEZL - Sevilla
Actualización: 30/03/2017 20:30
Despejado
Despejado
 Viento del SO
Viento: SO 9 km/h
Temperatura: 21°C
Rocío: 9°C
Humedad: 46%
Barómetro: 1021 hPa
Resumen: Despejado
Visibilidad: greater than 10 km
2017/03/30 18:30 LEZL 301830Z 23005KT CAVOK 21/09 Q1021 NOSIG
GCXO - Tenerife
Actualización: 30/03/2017 20:30
Despejado
Despejado
 Viento del O
Viento: O 19 km/h
Temperatura: 16°C
Rocío: 10°C
Humedad: 68%
Barómetro: 1022 hPa
Resumen: Despejado
Visibilidad: greater than 10 km
2017/03/30 18:30 GCXO 301830Z 28010KT CAVOK 16/10 Q1022 NOSIG
GCTS - Tenerife-Sur
Actualización: 30/03/2017 20:30
Despejado
Despejado
 Viento del E
Viento: E 28 km/h
Temperatura: 23°C
Rocío: 8°C
Humedad: 38%
Barómetro: 1019 hPa
Resumen: Despejado
Visibilidad: greater than 10 km
2017/03/30 18:30 GCTS 301830Z 08015KT CAVOK 23/08 Q1019 WS R07 NOSIG
 
LEVC - Valencia
Actualización: 30/03/2017 20:30
Despejado
Despejado
 Viento del ENE
Viento: ENE 9 km/h
Temperatura: 17°C
Rocío: 9°C
Humedad: 59%
Barómetro: 1024 hPa
Resumen: Despejado
Visibilidad: greater than 10 km
2017/03/30 18:30 LEVC 301830Z 07005KT CAVOK 17/09 Q1024 NOSIG
LEVD - Valladolid
Actualización: 30/03/2017 20:30
Despejado
Despejado
 Viento del OSO
Viento: OSO 17 km/h
Temperatura: 15°C
Rocío: 4°C
Humedad: 48%
Barómetro: 1020 hPa
Resumen: Despejado
Visibilidad: greater than 10 km
2017/03/30 18:30 LEVD 301830Z 24009KT CAVOK 15/04 Q1020
LEVX - Vigo
Actualización: 30/03/2017 20:30
Patches of fog, Muy nuboso
Patches of fog, Muy nuboso
 Viento del SSO
Viento: SSO 19 km/h
Temperatura: 12°C
Rocío: 12°C
Humedad: 100%
Barómetro: 1019 hPa
Resumen: Patches of Fog
Nubosidad: Mostly Cloudy
Visibilidad: 5 km
Cloud details: Partly Cloudy 91 m
Mostly Cloudy 213 m
Mostly Cloudy 640 m
2017/03/30 18:30 LEVX 301830Z 20010KT 160V220 5000 0800SE BCFG SCT003 BKN007 BKN021 12/12 Q1019 TEMPO 1400 RA BKN006
 
LEVT - Vitoria
Actualización: 30/03/2017 20:30
Few Clouds
Few Clouds
 Viento del SSE
Viento: SSE 17 km/h
Temperatura: 18°C
Rocío: 7°C
Humedad: 49%
Barómetro: 1019 hPa
Nubosidad: Few Clouds
Visibilidad: 10 km
Cloud details: Few Clouds 2134 m
2017/03/30 18:30 LEVT 301830Z 16009KT 120V190 9999 FEW070 18/07 Q1019
LEZG - Zaragoza
Actualización: 30/03/2017 20:30
Partly Cloudy
Partly Cloudy
 Viento del E
Viento: E 20 km/h
Temperatura: 20°C
Rocío: 7°C
Humedad: 43%
Barómetro: 1020 hPa
Nubosidad: Partly Cloudy
Visibilidad: 10 km
Cloud details: Partly Cloudy 2591 m
2017/03/30 18:30 LEZG 301830Z 09011KT 9999 SCT085 20/07 Q1020

La estación de MeteoMurcia.com, publica sus datos en los siguientes proyectos:

Meteoclimatic www.awekas.at

W3Counter
Web Analytics